Time;durP1;ratioP1;P1;durP2;ratioP2;P2;SDS_P1;SDS_P2;PMS_P1;PMS_P2;Temp;Humidity;BMP_temperature;BMP_pressure;BME280_temperature;BME280_humidity;BME280_pressure;Samples;Min_cycle;Max_cycle;Signal;HPM_P1;HPM_P2
2021/03/11 00:01:22;;;;;;;;;;;9.30;72.10;;;;;;5117503;27;19942;-56
2021/03/11 00:03:47;;;;;;;;;;;9.30;72.00;;;;;;5115391;27;19908;-56
2021/03/11 00:06:12;;;;;;;;;;;9.30;72.10;;;;;;5095828;28;19912;-56
2021/03/11 00:08:38;;;;;;;;;;;9.30;72.20;;;;;;5099758;28;19912;-57
2021/03/11 00:11:03;;;;;;;;;;;9.30;72.20;;;;;;5118280;27;20371;-58
2021/03/11 00:13:29;;;;;;;;;;;9.30;72.00;;;;;;5116236;27;19955;-60
2021/03/11 00:15:54;;;;;;;;;;;9.30;72.10;;;;;;5112023;27;19923;-57
2021/03/11 00:18:20;;;;;;;;;;;9.30;72.10;;;;;;5117168;27;20006;-56
2021/03/11 00:20:45;;;;;;;;;;;9.30;72.10;;;;;;5093007;28;20332;-56
2021/03/11 00:23:11;;;;;;;;;;;9.30;72.10;;;;;;5117569;27;19912;-58
2021/03/11 00:25:36;;;;;;;;;;;9.30;72.00;;;;;;5116854;27;19930;-56
2021/03/11 00:28:02;;;;;;;;;;;9.30;72.10;;;;;;5111922;27;20314;-57
2021/03/11 00:30:28;;;;;;;;;;;9.30;72.10;;;;;;5116630;27;19908;-60
2021/03/11 00:32:53;;;;;;;;;;;9.30;72.20;;;;;;5095957;27;19918;-58
2021/03/11 00:35:19;;;;;;;;;;;9.30;72.20;;;;;;5095568;28;19964;-59
2021/03/11 00:37:45;;;;;;;;;;;9.30;72.10;;;;;;5080785;28;20325;-58
2021/03/11 00:40:11;;;;;;;;;;;9.30;72.10;;;;;;5115396;27;19912;-57
2021/03/11 00:42:36;;;;;;;;;;;9.20;72.00;;;;;;5094969;27;19908;-58
2021/03/11 00:45:02;;;;;;;;;;;9.30;72.20;;;;;;5113676;27;19912;-58
2021/03/11 00:47:28;;;;;;;;;;;9.30;72.20;;;;;;5092185;28;20326;-59
2021/03/11 00:49:53;;;;;;;;;;;9.30;72.20;;;;;;5116846;27;19912;-57
2021/03/11 00:52:19;;;;;;;;;;;9.30;72.30;;;;;;5095154;27;19925;-57
2021/03/11 00:54:44;;;;;;;;;;;9.30;72.30;;;;;;5115214;27;19908;-58
2021/03/11 00:57:10;;;;;;;;;;;9.20;72.20;;;;;;5113874;27;19961;-56
2021/03/11 00:59:35;;;;;;;;;;;9.30;72.20;;;;;;5106831;27;19915;-58
2021/03/11 01:02:01;;;;;;;;;;;9.30;72.30;;;;;;5098822;28;20401;-56
2021/03/11 01:04:26;;;;;;;;;;;9.30;72.30;;;;;;5110978;28;19916;-56
2021/03/11 01:06:52;;;;;;;;;;;9.20;72.20;;;;;;5095659;28;20371;-60
2021/03/11 01:09:17;;;;;;;;;;;9.20;72.30;;;;;;5081043;28;19918;-56
2021/03/11 01:11:43;;;;;;;;;;;9.20;72.20;;;;;;5094135;27;20374;-57
2021/03/11 01:14:08;;;;;;;;;;;9.20;72.30;;;;;;5119786;27;19912;-59
2021/03/11 01:16:33;;;;;;;;;;;9.30;72.30;;;;;;5112867;27;19995;-56
2021/03/11 01:18:59;;;;;;;;;;;9.20;72.20;;;;;;5111731;27;20369;-59
2021/03/11 01:21:24;;;;;;;;;;;9.20;72.30;;;;;;5116384;27;19908;-58
2021/03/11 01:23:50;;;;;;;;;;;9.20;72.30;;;;;;5106342;28;19961;-57
2021/03/11 01:26:15;;;;;;;;;;;9.20;72.20;;;;;;5116290;27;19908;-57
2021/03/11 01:28:41;;;;;;;;;;;9.20;72.30;;;;;;5091805;28;19911;-58
2021/03/11 01:31:06;;;;;;;;;;;9.20;72.30;;;;;;5096523;28;19912;-59
2021/03/11 01:33:32;;;;;;;;;;;9.20;72.20;;;;;;5097746;27;19908;-58
2021/03/11 01:35:57;;;;;;;;;;;9.20;72.30;;;;;;5111720;27;19934;-55
2021/03/11 01:38:22;;;;;;;;;;;9.20;72.20;;;;;;5096168;28;19924;-58
2021/03/11 01:40:48;;;;;;;;;;;9.20;72.30;;;;;;5097134;28;19981;-58
2021/03/11 01:43:13;;;;;;;;;;;9.20;72.30;;;;;;5092053;28;20294;-58
2021/03/11 01:45:39;;;;;;;;;;;9.20;72.10;;;;;;5113913;27;19908;-56
2021/03/11 01:48:05;;;;;;;;;;;9.20;72.30;;;;;;5108824;28;19927;-58
2021/03/11 01:50:30;;;;;;;;;;;9.20;72.30;;;;;;5114277;27;19965;-57
2021/03/11 01:52:56;;;;;;;;;;;9.20;72.40;;;;;;5091393;28;19912;-58
2021/03/11 01:55:21;;;;;;;;;;;9.20;72.30;;;;;;5117664;27;19918;-57
2021/03/11 01:57:47;;;;;;;;;;;9.20;72.30;;;;;;5113902;27;20362;-58
2021/03/11 02:00:13;;;;;;;;;;;9.20;72.40;;;;;;5108975;27;19926;-56
2021/03/11 02:02:42;;;;;;;;;;;9.20;72.30;;;;;;5085582;28;19907;-56
2021/03/11 02:05:08;;;;;;;;;;;9.20;72.60;;;;;;5094917;27;19911;-58
2021/03/11 02:07:34;;;;;;;;;;;9.20;72.40;;;;;;5113897;27;20367;-56
2021/03/11 02:09:59;;;;;;;;;;;9.20;72.40;;;;;;5092259;27;19990;-58
2021/03/11 02:12:36;;;;;;;;;;;9.20;72.40;;;;;;5113870;27;19912;-58
2021/03/11 02:15:02;;;;;;;;;;;9.20;72.50;;;;;;5091578;28;19957;-56
2021/03/11 02:17:29;;;;;;;;;;;9.20;72.40;;;;;;5116349;27;19908;-56
2021/03/11 02:20:13;;;;;;;;;;;9.20;72.40;;;;;;5090659;28;19965;-57
2021/03/11 02:22:44;;;;;;;;;;;9.20;72.50;;;;;;5115308;27;19910;-57
2021/03/11 02:25:09;;;;;;;;;;;9.20;72.50;;;;;;5098233;27;19907;-57
2021/03/11 02:27:53;;;;;;;;;;;9.20;72.40;;;;;;5111465;27;19918;-57
2021/03/11 02:30:18;;;;;;;;;;;9.20;72.50;;;;;;5113680;27;19959;-59
2021/03/11 02:32:44;;;;;;;;;;;9.10;72.40;;;;;;5094461;27;19954;-56
2021/03/11 02:35:09;;;;;;;;;;;9.20;72.40;;;;;;5076925;28;19965;-57
2021/03/11 02:37:36;;;;;;;;;;;9.20;72.40;;;;;;5094586;27;20006;-59
2021/03/11 02:40:11;;;;;;;;;;;9.20;72.40;;;;;;5094819;28;20089;-58
2021/03/11 02:42:37;;;;;;;;;;;9.20;72.40;;;;;;5098483;28;20363;-58
2021/03/11 02:45:03;;;;;;;;;;;9.20;72.50;;;;;;5116655;27;20018;-59
2021/03/11 02:47:29;;;;;;;;;;;9.20;72.40;;;;;;5106943;28;19916;-57
2021/03/11 02:49:54;;;;;;;;;;;9.20;72.40;;;;;;5107268;28;19942;-56
2021/03/11 02:52:20;;;;;;;;;;;9.20;72.40;;;;;;5114088;27;19946;-55
2021/03/11 02:54:46;;;;;;;;;;;9.20;72.40;;;;;;5096188;28;19908;-58
2021/03/11 02:57:11;;;;;;;;;;;9.20;72.50;;;;;;5093959;27;20393;-58
2021/03/11 02:59:37;;;;;;;;;;;9.20;72.40;;;;;;5092858;28;19955;-58
2021/03/11 03:02:03;;;;;;;;;;;9.20;72.50;;;;;;5092197;27;20393;-57
2021/03/11 03:04:28;;;;;;;;;;;9.20;72.40;;;;;;5093851;28;19907;-58
2021/03/11 03:06:54;;;;;;;;;;;9.20;72.40;;;;;;5093265;27;20431;-57
2021/03/11 03:09:19;;;;;;;;;;;9.10;72.40;;;;;;5093576;28;19908;-59
2021/03/11 03:11:45;;;;;;;;;;;9.10;72.30;;;;;;5113549;27;20374;-59
2021/03/11 03:14:10;;;;;;;;;;;9.10;72.40;;;;;;5088968;28;19912;-58
2021/03/11 03:16:36;;;;;;;;;;;9.10;72.60;;;;;;5114957;27;19915;-59
2021/03/11 03:19:01;;;;;;;;;;;9.20;72.80;;;;;;5113981;27;19916;-57
2021/03/11 03:21:27;;;;;;;;;;;9.10;72.40;;;;;;5092909;27;20034;-56
2021/03/11 03:23:52;;;;;;;;;;;9.20;72.60;;;;;;5093782;28;19953;-56
2021/03/11 03:26:18;;;;;;;;;;;9.20;72.60;;;;;;5091341;27;19908;-59
2021/03/11 03:28:43;;;;;;;;;;;9.20;72.50;;;;;;5075465;28;19908;-59
2021/03/11 03:31:09;;;;;;;;;;;9.20;72.70;;;;;;5114848;27;20423;-58
2021/03/11 03:33:34;;;;;;;;;;;9.20;72.60;;;;;;5115288;28;19911;-57
2021/03/11 03:36:00;;;;;;;;;;;9.10;72.50;;;;;;5110119;28;19911;-58
2021/03/11 03:38:25;;;;;;;;;;;9.10;72.60;;;;;;5083670;28;19962;-55
2021/03/11 03:40:51;;;;;;;;;;;9.20;72.50;;;;;;5108897;28;19957;-59
2021/03/11 03:43:22;;;;;;;;;;;9.20;72.40;;;;;;5093264;28;19939;-58
2021/03/11 03:45:54;;;;;;;;;;;9.10;72.40;;;;;;5091046;28;20305;-56
2021/03/11 03:48:22;;;;;;;;;;;9.20;72.30;;;;;;5087742;28;19920;-59
2021/03/11 03:50:47;;;;;;;;;;;9.20;72.30;;;;;;5094958;28;19947;-60
2021/03/11 03:53:15;;;;;;;;;;;9.10;72.30;;;;;;5088829;28;19939;-59
2021/03/11 03:55:41;;;;;;;;;;;9.20;72.20;;;;;;5095453;28;19927;-57
2021/03/11 03:58:06;;;;;;;;;;;9.10;72.20;;;;;;5086472;28;19927;-58
2021/03/11 04:00:31;;;;;;;;;;;9.20;72.10;;;;;;5109023;28;19907;-55
2021/03/11 04:02:57;;;;;;;;;;;9.20;72.10;;;;;;5091488;28;20027;-59
2021/03/11 04:05:22;;;;;;;;;;;9.20;72.10;;;;;;5093642;28;20379;-57
2021/03/11 04:07:48;;;;;;;;;;;9.10;72.00;;;;;;5089562;28;19907;-58
2021/03/11 04:10:13;;;;;;;;;;;9.10;72.00;;;;;;5094045;28;20359;-57
2021/03/11 04:12:39;;;;;;;;;;;9.20;72.00;;;;;;5091396;28;19992;-58
2021/03/11 04:15:05;;;;;;;;;;;9.20;72.00;;;;;;5089828;28;20003;-58
2021/03/11 04:17:30;;;;;;;;;;;9.10;71.90;;;;;;5088899;28;20127;-59
2021/03/11 04:19:56;;;;;;;;;;;9.10;71.90;;;;;;5093812;28;19912;-57
2021/03/11 04:22:21;;;;;;;;;;;9.10;71.80;;;;;;5095702;28;19964;-57
2021/03/11 04:24:47;;;;;;;;;;;9.20;71.90;;;;;;5089474;28;20339;-59
2021/03/11 04:27:12;;;;;;;;;;;9.10;71.70;;;;;;5089849;28;19908;-57
2021/03/11 04:29:38;;;;;;;;;;;9.20;71.80;;;;;;5093374;28;19917;-56
2021/03/11 04:32:03;;;;;;;;;;;9.20;71.70;;;;;;5091305;28;20011;-59
2021/03/11 04:34:29;;;;;;;;;;;9.20;71.60;;;;;;5094937;28;20351;-57
2021/03/11 04:36:54;;;;;;;;;;;9.20;71.60;;;;;;5094027;28;19916;-56
2021/03/11 04:39:20;;;;;;;;;;;9.20;71.30;;;;;;5089589;28;19927;-59
2021/03/11 04:41:46;;;;;;;;;;;9.20;71.50;;;;;;5089135;28;19908;-59
2021/03/11 04:44:11;;;;;;;;;;;9.20;71.40;;;;;;5093555;28;19908;-57
2021/03/11 04:46:37;;;;;;;;;;;9.20;71.40;;;;;;5084673;28;19919;-58
2021/03/11 04:49:02;;;;;;;;;;;9.20;71.40;;;;;;5091171;28;20007;-58
2021/03/11 04:51:28;;;;;;;;;;;9.20;71.40;;;;;;5091571;28;19996;-59
2021/03/11 04:53:53;;;;;;;;;;;9.20;71.50;;;;;;5096095;28;19912;-57
2021/03/11 04:56:19;;;;;;;;;;;9.20;71.40;;;;;;5094672;28;19915;-57
2021/03/11 04:58:45;;;;;;;;;;;9.20;71.40;;;;;;5088782;28;20418;-56
2021/03/11 05:01:13;;;;;;;;;;;9.20;71.50;;;;;;5095146;28;19927;-58
2021/03/11 05:03:42;;;;;;;;;;;9.20;71.50;;;;;;5094606;28;20065;-59
2021/03/11 05:06:08;;;;;;;;;;;9.20;71.50;;;;;;5095443;28;19923;-59
2021/03/11 05:08:33;;;;;;;;;;;9.20;71.60;;;;;;5093618;28;19908;-59
2021/03/11 05:10:59;;;;;;;;;;;9.20;71.60;;;;;;5090994;28;19908;-56
2021/03/11 05:13:24;;;;;;;;;;;9.20;71.60;;;;;;5097262;28;20375;-59
2021/03/11 05:15:50;;;;;;;;;;;9.20;71.60;;;;;;5096180;28;19923;-58
2021/03/11 05:18:15;;;;;;;;;;;9.20;71.60;;;;;;5093111;28;19914;-56
2021/03/11 05:20:41;;;;;;;;;;;9.20;71.60;;;;;;5091494;28;19908;-59
2021/03/11 05:23:06;;;;;;;;;;;9.30;71.70;;;;;;5088840;28;20031;-57
2021/03/11 05:25:31;;;;;;;;;;;9.30;71.80;;;;;;5097027;28;20359;-58
2021/03/11 05:27:57;;;;;;;;;;;9.20;71.80;;;;;;5073373;28;20050;-58
2021/03/11 05:30:24;;;;;;;;;;;9.20;71.90;;;;;;5090121;28;19912;-57
2021/03/11 05:32:50;;;;;;;;;;;9.30;72.00;;;;;;5095567;28;19915;-58
2021/03/11 05:35:15;;;;;;;;;;;9.30;72.00;;;;;;5094236;28;19923;-56
2021/03/11 05:37:41;;;;;;;;;;;9.30;72.10;;;;;;5097221;27;20367;-56
2021/03/11 05:40:08;;;;;;;;;;;9.30;72.00;;;;;;5113959;27;19916;-57
2021/03/11 05:42:33;;;;;;;;;;;9.30;72.20;;;;;;5094969;27;19969;-55
2021/03/11 05:44:58;;;;;;;;;;;9.30;72.20;;;;;;5093623;28;19947;-56
2021/03/11 05:47:24;;;;;;;;;;;9.30;72.20;;;;;;5090871;28;20402;-58
2021/03/11 05:49:49;;;;;;;;;;;9.30;72.70;;;;;;5088028;28;20363;-58
2021/03/11 05:52:15;;;;;;;;;;;9.30;72.80;;;;;;5099241;28;19912;-55
2021/03/11 05:54:40;;;;;;;;;;;9.30;73.10;;;;;;5098900;28;19912;-58
2021/03/11 05:57:06;;;;;;;;;;;9.30;73.00;;;;;;5096546;27;19911;-57
2021/03/11 05:59:32;;;;;;;;;;;9.30;73.00;;;;;;5093912;28;19908;-58
2021/03/11 06:01:58;;;;;;;;;;;9.30;73.00;;;;;;5090389;28;19916;-59
2021/03/11 06:04:23;;;;;;;;;;;9.30;73.30;;;;;;5091750;28;20317;-57
2021/03/11 06:06:49;;;;;;;;;;;9.30;73.10;;;;;;5116841;27;19922;-59
2021/03/11 06:09:17;;;;;;;;;;;9.30;73.20;;;;;;5117702;27;19914;-58
2021/03/11 06:11:43;;;;;;;;;;;9.20;73.00;;;;;;5112524;27;20256;-59
2021/03/11 06:14:09;;;;;;;;;;;9.30;73.30;;;;;;5093968;28;19918;-56
2021/03/11 06:16:34;;;;;;;;;;;9.30;73.30;;;;;;5098944;28;20499;-57
2021/03/11 06:18:59;;;;;;;;;;;9.20;73.20;;;;;;5090952;28;19956;-58
2021/03/11 06:21:25;;;;;;;;;;;9.20;73.30;;;;;;5095380;27;19908;-58
2021/03/11 06:23:50;;;;;;;;;;;9.30;73.40;;;;;;5112375;27;20362;-59
2021/03/11 06:26:16;;;;;;;;;;;9.30;73.30;;;;;;5098130;28;20001;-57
2021/03/11 06:28:44;;;;;;;;;;;9.30;73.30;;;;;;5090598;28;19960;-56
2021/03/11 06:31:15;;;;;;;;;;;9.30;73.30;;;;;;5115970;27;19912;-56
2021/03/11 06:33:41;;;;;;;;;;;9.30;73.30;;;;;;5089469;28;19934;-55
2021/03/11 06:36:12;;;;;;;;;;;9.30;73.40;;;;;;5117451;27;20351;-56
2021/03/11 06:38:38;;;;;;;;;;;9.30;73.40;;;;;;5088926;28;19920;-57
2021/03/11 06:41:03;;;;;;;;;;;9.30;73.60;;;;;;5108441;28;20272;-56
2021/03/11 06:43:29;;;;;;;;;;;9.30;73.60;;;;;;5108836;28;20321;-58
2021/03/11 06:46:03;;;;;;;;;;;9.30;73.60;;;;;;5108040;28;20314;-59
2021/03/11 06:48:29;;;;;;;;;;;9.00;73.40;;;;;;5081517;28;19912;-57
2021/03/11 06:50:58;;;;;;;;;;;9.30;73.60;;;;;;5106800;28;19934;-55
2021/03/11 06:53:23;;;;;;;;;;;9.30;73.50;;;;;;5083141;27;19908;-56
2021/03/11 06:55:49;;;;;;;;;;;9.30;73.60;;;;;;5123472;27;19912;-57
2021/03/11 06:58:15;;;;;;;;;;;9.30;73.60;;;;;;5088731;28;19961;-56
2021/03/11 07:00:40;;;;;;;;;;;9.30;73.60;;;;;;5116118;27;19916;-58
2021/03/11 07:03:06;;;;;;;;;;;9.30;73.70;;;;;;5090405;28;19915;-58
2021/03/11 07:05:32;;;;;;;;;;;9.30;73.80;;;;;;5088619;28;20412;-57
2021/03/11 07:08:01;;;;;;;;;;;9.30;73.80;;;;;;5098120;28;20149;-55
2021/03/11 07:10:27;;;;;;;;;;;9.30;73.60;;;;;;5106996;28;19911;-56
2021/03/11 07:12:53;;;;;;;;;;;9.30;73.60;;;;;;5085989;27;19957;-58
2021/03/11 07:15:19;;;;;;;;;;;9.30;73.50;;;;;;5088551;28;19919;-58
2021/03/11 07:17:45;;;;;;;;;;;9.30;73.60;;;;;;5103980;27;19972;-56
2021/03/11 07:20:14;;;;;;;;;;;9.30;73.60;;;;;;5117707;27;20488;-57
2021/03/11 07:22:40;;;;;;;;;;;9.30;73.50;;;;;;5083371;28;20288;-56
2021/03/11 07:25:26;;;;;;;;;;;9.30;73.50;;;;;;5086605;28;19951;-58
2021/03/11 07:27:51;;;;;;;;;;;9.40;73.50;;;;;;5090457;28;19918;-59
2021/03/11 07:30:17;;;;;;;;;;;9.40;73.80;;;;;;5102308;28;19942;-57
2021/03/11 07:32:42;;;;;;;;;;;9.40;73.70;;;;;;5098486;28;20026;-60
2021/03/11 07:35:08;;;;;;;;;;;9.40;73.60;;;;;;5106648;28;19965;-57
2021/03/11 07:37:33;;;;;;;;;;;9.40;73.70;;;;;;5093965;28;20285;-58
2021/03/11 07:39:59;;;;;;;;;;;9.40;73.50;;;;;;5122942;28;19908;-58
2021/03/11 07:42:24;;;;;;;;;;;9.40;73.40;;;;;;5100922;28;19908;-57
2021/03/11 07:44:50;;;;;;;;;;;9.40;73.50;;;;;;5070339;28;20260;-57
2021/03/11 07:47:15;;;;;;;;;;;9.40;73.50;;;;;;5087708;28;19908;-58
2021/03/11 07:49:41;;;;;;;;;;;9.40;73.50;;;;;;5089388;28;20313;-57
2021/03/11 07:52:07;;;;;;;;;;;9.50;73.50;;;;;;5088697;28;19922;-56
2021/03/11 07:54:33;;;;;;;;;;;9.50;73.50;;;;;;5091710;28;19916;-59
2021/03/11 07:56:58;;;;;;;;;;;9.50;73.70;;;;;;5075969;28;19968;-58
2021/03/11 07:59:23;;;;;;;;;;;9.30;73.40;;;;;;5086267;28;19961;-58
2021/03/11 08:01:50;;;;;;;;;;;9.60;73.40;;;;;;5075640;28;19920;-59
2021/03/11 08:04:19;;;;;;;;;;;9.50;73.30;;;;;;5055734;28;20018;-58
2021/03/11 08:06:45;;;;;;;;;;;9.60;73.30;;;;;;5085234;28;19920;-58
2021/03/11 08:09:10;;;;;;;;;;;9.60;73.30;;;;;;5083543;28;20503;-57
2021/03/11 08:11:39;;;;;;;;;;;9.60;73.40;;;;;;5103816;28;19916;-56
2021/03/11 08:14:24;;;;;;;;;;;9.60;73.50;;;;;;5113837;28;19911;-58
2021/03/11 08:16:50;;;;;;;;;;;9.60;73.30;;;;;;5103687;28;19920;-58
2021/03/11 08:19:48;;;;;;;;;;;9.60;73.50;;;;;;5069662;28;19923;-57
2021/03/11 08:22:14;;;;;;;;;;;9.70;74.00;;;;;;5051230;28;19934;-57
2021/03/11 08:24:43;;;;;;;;;;;9.70;73.30;;;;;;5090480;27;20402;-57
2021/03/11 08:27:27;;;;;;;;;;;9.70;72.80;;;;;;5079886;28;20452;-56
2021/03/11 08:29:53;;;;;;;;;;;9.80;72.70;;;;;;5111474;27;19980;-57
2021/03/11 08:32:44;;;;;;;;;;;9.80;73.20;;;;;;5091649;28;19923;-58
2021/03/11 08:35:28;;;;;;;;;;;9.80;72.70;;;;;;5101788;28;19919;-59
2021/03/11 08:37:54;;;;;;;;;;;9.90;72.70;;;;;;5105210;27;19920;-57
2021/03/11 08:40:34;;;;;;;;;;;9.90;72.60;;;;;;5108730;27;19927;-59
2021/03/11 08:43:00;;;;;;;;;;;10.00;72.90;;;;;;5102231;27;19920;-58
2021/03/11 08:45:39;;;;;;;;;;;9.90;73.00;;;;;;5104943;27;21402;-59
2021/03/11 08:48:14;;;;;;;;;;;10.00;72.90;;;;;;5098306;27;19923;-56
2021/03/11 08:50:40;;;;;;;;;;;10.10;73.20;;;;;;5088331;28;19961;-58
2021/03/11 08:53:05;;;;;;;;;;;10.10;72.70;;;;;;5088753;28;19919;-57
2021/03/11 08:55:32;;;;;;;;;;;10.20;72.90;;;;;;5118834;27;19916;-56
2021/03/11 08:57:57;;;;;;;;;;;10.20;73.00;;;;;;5109550;27;20458;-57
2021/03/11 09:00:45;;;;;;;;;;;10.20;73.20;;;;;;5108636;28;19964;-57
2021/03/11 09:03:30;;;;;;;;;;;10.30;73.10;;;;;;5108202;28;19960;-56
2021/03/11 09:05:55;;;;;;;;;;;10.30;73.30;;;;;;5104374;28;19937;-56
2021/03/11 09:08:21;;;;;;;;;;;10.40;73.50;;;;;;5105547;28;20366;-59
2021/03/11 09:10:46;;;;;;;;;;;10.40;73.30;;;;;;5091711;28;19923;-59
2021/03/11 09:13:13;;;;;;;;;;;10.50;73.80;;;;;;5099783;27;20452;-56
2021/03/11 09:15:38;;;;;;;;;;;10.50;73.50;;;;;;5072007;28;20264;-56
2021/03/11 09:18:04;;;;;;;;;;;10.40;73.70;;;;;;5093412;28;19933;-56
2021/03/11 09:20:29;;;;;;;;;;;10.60;73.80;;;;;;5109517;27;19976;-59
2021/03/11 09:22:55;;;;;;;;;;;10.60;73.50;;;;;;5109643;28;19923;-56
2021/03/11 09:25:23;;;;;;;;;;;10.70;73.70;;;;;;5110573;28;19908;-59
2021/03/11 09:27:59;;;;;;;;;;;10.70;74.10;;;;;;5107576;28;19918;-58
2021/03/11 09:30:24;;;;;;;;;;;10.80;74.30;;;;;;5104299;28;19912;-59
2021/03/11 09:32:49;;;;;;;;;;;10.80;73.80;;;;;;5116486;27;19923;-58
2021/03/11 09:35:15;;;;;;;;;;;10.90;73.80;;;;;;5089288;28;19957;-58
2021/03/11 09:37:44;;;;;;;;;;;10.90;74.10;;;;;;5090749;28;20321;-56
2021/03/11 09:40:13;;;;;;;;;;;11.00;74.00;;;;;;5090897;28;19916;-60
2021/03/11 09:43:17;;;;;;;;;;;11.00;74.00;;;;;;5101051;27;19915;-60
2021/03/11 09:45:43;;;;;;;;;;;11.10;74.10;;;;;;5044508;28;19917;-58
2021/03/11 09:48:15;;;;;;;;;;;11.20;73.90;;;;;;5055746;28;19923;-60
2021/03/11 09:50:48;;;;;;;;;;;11.20;74.10;;;;;;5079160;27;19915;-57
2021/03/11 09:53:14;;;;;;;;;;;11.30;74.40;;;;;;5084467;28;19924;-59
2021/03/11 09:55:39;;;;;;;;;;;11.30;74.40;;;;;;5106248;28;19996;-57
2021/03/11 09:58:05;;;;;;;;;;;11.40;74.40;;;;;;5091658;28;20007;-58
2021/03/11 10:00:32;;;;;;;;;;;11.50;74.10;;;;;;5091848;28;20350;-56
2021/03/11 10:02:58;;;;;;;;;;;11.50;74.00;;;;;;5109568;28;19955;-56
2021/03/11 10:05:23;;;;;;;;;;;11.60;74.10;;;;;;5108452;28;19951;-59
2021/03/11 10:07:56;;;;;;;;;;;11.70;74.10;;;;;;5108011;28;19907;-60
2021/03/11 10:10:21;;;;;;;;;;;11.70;74.00;;;;;;5089783;28;20010;-58
2021/03/11 10:12:47;;;;;;;;;;;11.70;74.00;;;;;;5090293;28;20023;-59
2021/03/11 10:15:14;;;;;;;;;;;11.80;74.30;;;;;;5064461;28;19912;-57
2021/03/11 10:17:40;;;;;;;;;;;11.80;74.40;;;;;;5091301;27;19916;-58
2021/03/11 10:20:19;;;;;;;;;;;11.80;74.50;;;;;;5102377;27;20002;-56
2021/03/11 10:22:44;;;;;;;;;;;11.80;74.30;;;;;;5121303;27;19907;-59
2021/03/11 10:25:13;;;;;;;;;;;11.80;74.50;;;;;;5107308;27;19919;-58
2021/03/11 10:27:42;;;;;;;;;;;11.90;74.50;;;;;;5100551;28;19908;-57
2021/03/11 10:30:09;;;;;;;;;;;11.90;74.30;;;;;;5091157;28;19999;-56
2021/03/11 10:32:35;;;;;;;;;;;11.90;74.00;;;;;;5089614;28;19916;-57
2021/03/11 10:35:00;;;;;;;;;;;11.90;74.10;;;;;;5117094;27;20541;-56
2021/03/11 10:37:26;;;;;;;;;;;12.00;74.00;;;;;;5094303;28;19943;-56
2021/03/11 10:39:52;;;;;;;;;;;12.00;74.10;;;;;;5098788;27;19915;-57
2021/03/11 10:42:17;;;;;;;;;;;12.00;73.90;;;;;;5119484;27;19911;-59
2021/03/11 10:44:53;;;;;;;;;;;12.10;73.50;;;;;;5111306;27;19989;-58
2021/03/11 10:47:18;;;;;;;;;;;12.10;73.80;;;;;;5076767;28;19916;-57
2021/03/11 10:49:44;;;;;;;;;;;12.20;74.00;;;;;;5105623;27;19933;-56
2021/03/11 10:52:10;;;;;;;;;;;12.20;74.00;;;;;;5106263;27;20294;-59
2021/03/11 10:54:36;;;;;;;;;;;12.30;74.10;;;;;;5089470;28;19916;-56
2021/03/11 10:57:05;;;;;;;;;;;12.30;73.80;;;;;;5117630;27;20677;-57
2021/03/11 10:59:30;;;;;;;;;;;12.40;73.90;;;;;;5090573;28;19912;-56
2021/03/11 11:01:56;;;;;;;;;;;12.40;73.60;;;;;;5085203;28;19911;-58
2021/03/11 11:04:21;;;;;;;;;;;12.50;73.40;;;;;;5106112;27;19946;-59
2021/03/11 11:06:47;;;;;;;;;;;12.60;73.50;;;;;;5118654;27;20424;-59
2021/03/11 11:09:12;;;;;;;;;;;12.60;73.40;;;;;;5119583;27;19924;-57
2021/03/11 11:11:37;;;;;;;;;;;12.60;73.10;;;;;;5099495;27;19915;-59
2021/03/11 11:14:03;;;;;;;;;;;12.60;72.90;;;;;;5085428;28;20052;-59
2021/03/11 11:16:28;;;;;;;;;;;12.70;73.20;;;;;;5088416;27;20390;-57
2021/03/11 11:18:54;;;;;;;;;;;12.70;73.00;;;;;;5114150;27;19912;-59
2021/03/11 11:21:19;;;;;;;;;;;12.80;72.70;;;;;;5108514;27;19912;-58
2021/03/11 11:23:45;;;;;;;;;;;12.80;72.60;;;;;;5116389;27;19995;-57
2021/03/11 11:26:11;;;;;;;;;;;12.90;72.80;;;;;;5112900;28;19976;-59
2021/03/11 11:28:36;;;;;;;;;;;12.90;72.80;;;;;;5094987;28;19912;-58
2021/03/11 11:31:01;;;;;;;;;;;12.90;73.00;;;;;;5113971;27;20115;-59
2021/03/11 11:33:27;;;;;;;;;;;12.90;73.00;;;;;;5100698;28;19911;-57
2021/03/11 11:35:52;;;;;;;;;;;12.90;73.00;;;;;;5089461;28;19960;-56
2021/03/11 11:38:18;;;;;;;;;;;13.00;73.00;;;;;;5099025;28;20018;-60
2021/03/11 11:40:44;;;;;;;;;;;13.00;72.80;;;;;;5097840;28;19955;-59
2021/03/11 11:43:09;;;;;;;;;;;13.10;72.70;;;;;;5091416;28;20371;-60
2021/03/11 11:45:34;;;;;;;;;;;13.10;72.50;;;;;;5110663;28;20351;-57
2021/03/11 11:48:00;;;;;;;;;;;13.20;73.30;;;;;;5107631;28;20135;-57
2021/03/11 11:50:25;;;;;;;;;;;13.20;72.60;;;;;;5111708;27;20260;-59
2021/03/11 11:52:51;;;;;;;;;;;13.20;72.40;;;;;;5100123;27;19916;-59
2021/03/11 11:55:16;;;;;;;;;;;13.30;72.30;;;;;;5102495;27;20320;-58
2021/03/11 11:57:42;;;;;;;;;;;13.30;72.30;;;;;;5106567;27;19920;-59
2021/03/11 12:00:12;;;;;;;;;;;13.40;72.30;;;;;;5103895;28;19920;-57
2021/03/11 12:02:37;;;;;;;;;;;13.40;72.10;;;;;;5094964;28;19912;-57
2021/03/11 12:05:03;;;;;;;;;;;13.40;71.90;;;;;;5109366;27;20290;-58
2021/03/11 12:07:28;;;;;;;;;;;13.40;72.20;;;;;;5123168;27;19951;-59
2021/03/11 12:09:55;;;;;;;;;;;13.40;72.40;;;;;;5115713;27;19911;-58
2021/03/11 12:12:20;;;;;;;;;;;13.40;72.30;;;;;;5087381;28;20325;-58
2021/03/11 12:14:46;;;;;;;;;;;13.50;72.40;;;;;;5097618;28;19911;-58
2021/03/11 12:17:11;;;;;;;;;;;13.50;72.60;;;;;;5112577;27;20066;-59
2021/03/11 12:19:36;;;;;;;;;;;13.50;72.80;;;;;;5117378;27;19915;-56
2021/03/11 12:22:02;;;;;;;;;;;13.50;72.80;;;;;;5116246;27;19926;-57
2021/03/11 12:24:27;;;;;;;;;;;13.50;72.90;;;;;;5099128;27;20213;-59
2021/03/11 12:26:53;;;;;;;;;;;13.60;73.00;;;;;;5094450;28;19919;-57
2021/03/11 12:29:18;;;;;;;;;;;13.60;72.70;;;;;;5108884;27;19916;-57
2021/03/11 12:31:44;;;;;;;;;;;13.60;72.80;;;;;;5103743;27;20359;-59
2021/03/11 12:34:10;;;;;;;;;;;13.60;72.70;;;;;;5079827;28;20430;-58
2021/03/11 12:36:36;;;;;;;;;;;13.60;72.60;;;;;;5093937;28;19920;-58
2021/03/11 12:39:02;;;;;;;;;;;13.70;72.60;;;;;;5106032;28;19920;-58
2021/03/11 12:41:27;;;;;;;;;;;13.70;72.50;;;;;;5100745;27;19911;-57
2021/03/11 12:43:52;;;;;;;;;;;13.70;72.50;;;;;;5103446;27;19912;-58
2021/03/11 12:46:18;;;;;;;;;;;13.70;73.10;;;;;;5106464;27;19996;-57
2021/03/11 12:48:43;;;;;;;;;;;13.80;72.40;;;;;;5107664;28;19916;-57
2021/03/11 12:51:09;;;;;;;;;;;13.80;72.50;;;;;;5098970;28;20422;-59
2021/03/11 12:53:34;;;;;;;;;;;13.80;72.50;;;;;;5115256;27;19915;-58
2021/03/11 12:56:00;;;;;;;;;;;13.80;72.40;;;;;;5105596;27;19939;-57
2021/03/11 12:58:25;;;;;;;;;;;13.80;72.30;;;;;;5086877;28;19972;-59
2021/03/11 13:00:51;;;;;;;;;;;13.80;72.30;;;;;;5110601;27;20282;-58
2021/03/11 13:03:17;;;;;;;;;;;13.80;73.10;;;;;;5105482;27;19911;-58
2021/03/11 13:05:43;;;;;;;;;;;13.90;72.50;;;;;;5107035;27;20281;-58
2021/03/11 13:08:08;;;;;;;;;;;13.90;72.60;;;;;;5101477;28;20035;-57
2021/03/11 13:10:34;;;;;;;;;;;13.90;72.60;;;;;;5105755;28;19927;-59
2021/03/11 13:12:59;;;;;;;;;;;13.90;72.60;;;;;;5106904;27;19920;-58
2021/03/11 13:15:25;;;;;;;;;;;13.90;72.40;;;;;;5096815;28;20011;-57
2021/03/11 13:17:50;;;;;;;;;;;13.90;72.40;;;;;;5094469;28;19916;-58
2021/03/11 13:20:16;;;;;;;;;;;14.00;72.60;;;;;;5086562;28;20636;-57
2021/03/11 13:22:42;;;;;;;;;;;13.90;72.80;;;;;;5083153;28;19916;-57
2021/03/11 13:25:08;;;;;;;;;;;14.00;72.50;;;;;;5099355;27;19927;-56
2021/03/11 13:27:33;;;;;;;;;;;14.00;72.80;;;;;;5099690;28;20406;-59
2021/03/11 13:29:59;;;;;;;;;;;14.00;72.80;;;;;;5108662;27;19912;-57
2021/03/11 13:32:24;;;;;;;;;;;14.00;72.80;;;;;;5089073;28;19919;-56
2021/03/11 13:34:50;;;;;;;;;;;14.00;72.90;;;;;;5084310;28;19919;-59
2021/03/11 13:37:15;;;;;;;;;;;14.00;72.80;;;;;;5068805;28;19912;-56
2021/03/11 13:39:41;;;;;;;;;;;14.00;73.10;;;;;;5101532;27;19946;-59
2021/03/11 13:42:06;;;;;;;;;;;14.00;72.90;;;;;;5110236;27;19956;-58
2021/03/11 13:44:32;;;;;;;;;;;14.10;73.10;;;;;;5109577;28;19918;-58
2021/03/11 13:46:57;;;;;;;;;;;14.10;72.90;;;;;;5111849;27;20056;-56
2021/03/11 13:49:23;;;;;;;;;;;14.10;72.70;;;;;;5095108;28;19923;-58
2021/03/11 13:51:48;;;;;;;;;;;14.10;72.90;;;;;;5101236;28;19937;-58
2021/03/11 13:54:14;;;;;;;;;;;14.10;72.90;;;;;;5104356;28;19923;-57
2021/03/11 13:56:39;;;;;;;;;;;14.20;72.80;;;;;;5110026;27;20298;-56
2021/03/11 13:59:05;;;;;;;;;;;14.20;72.80;;;;;;5107284;27;19915;-56
2021/03/11 14:01:30;;;;;;;;;;;14.20;72.50;;;;;;5104341;28;19920;-56
2021/03/11 14:03:56;;;;;;;;;;;14.20;73.20;;;;;;5087632;28;19966;-58
2021/03/11 14:06:21;;;;;;;;;;;14.30;72.80;;;;;;5087513;28;21256;-59
2021/03/11 14:08:47;;;;;;;;;;;14.30;72.90;;;;;;5090173;28;19916;-56
2021/03/11 14:11:12;;;;;;;;;;;14.30;72.60;;;;;;5071627;28;20137;-58
2021/03/11 14:13:38;;;;;;;;;;;14.30;72.60;;;;;;5106647;27;20353;-56
2021/03/11 14:16:04;;;;;;;;;;;14.30;72.60;;;;;;5088224;28;19959;-59
2021/03/11 14:18:30;;;;;;;;;;;14.30;72.60;;;;;;5100909;28;19920;-56
2021/03/11 14:20:55;;;;;;;;;;;14.40;72.60;;;;;;5085005;27;20300;-57
2021/03/11 14:23:21;;;;;;;;;;;14.40;72.70;;;;;;5104053;28;19915;-58